Arklow Rogue — EIGD — position and weather

sailwx.info

Track history (hours):
 
Tides and Currents Weather Stations Pressure Air Temp Water Temp Dewpoint Dewpoint Depression Visibility Wind Speed Wind Dir Waves Ship Positions

Arklow Rogue

Last reported at 2014-Oct-31 06:31 UTC. Time now 2014-Oct-31 07:09 UTC.
Position N 57°30' W 001°47'.

Length 90 m; draft 3.4 m.

Type: Cargo ship. MMSI: 250000960.

Date/timePositionNaut miles runAvg speedWind from/ knotsBaromVisibWave heightAir tempDewpointWater temp
2014-Oct-31 06:31N 57°30' W 001°47'0 0.0
2014-Oct-31 05:31N 57°30' W 001°47'0 0.0
2014-Oct-31 04:31N 57°30' W 001°47'0 0.0
2014-Oct-31 03:31N 57°30' W 001°47'0 0.0
2014-Oct-31 02:28N 57°30' W 001°47'0 0.0
2014-Oct-31 01:31N 57°30' W 001°47'0 0.0
2014-Oct-31 00:31N 57°30' W 001°47'0 0.0
2014-Oct-30 23:31N 57°30' W 001°47'0 0.0
2014-Oct-30 22:31N 57°30' W 001°47'0 0.0
2014-Oct-30 21:31N 57°30' W 001°47'0 0.0
2014-Oct-30 20:31N 57°30' W 001°47'0 0.0
2014-Oct-30 19:31N 57°30' W 001°47'0 0.0
2014-Oct-30 18:31N 57°30' W 001°47'0 0.0
2014-Oct-30 17:31N 57°30' W 001°47'0 0.0
2014-Oct-30 16:31N 57°30' W 001°47'0 0.0
2014-Oct-30 15:31N 57°30' W 001°47'0 0.0
2014-Oct-30 14:28N 57°30' W 001°47'0 0.0
2014-Oct-30 13:31N 57°30' W 001°47'0 0.0
2014-Oct-30 12:31N 57°30' W 001°47'0 0.0
2014-Oct-30 11:31N 57°30' W 001°47'0 0.0
2014-Oct-30 10:31N 57°30' W 001°47'0 0.0
2014-Oct-30 09:31N 57°30' W 001°47'0 0.0
2014-Oct-30 08:31N 57°30' W 001°47'0 0.0
2014-Oct-30 07:31N 57°30' W 001°47'0 0.0
2014-Oct-30 06:31N 57°30' W 001°47'0 0.0
2014-Oct-30 05:28N 57°30' W 001°47'0 0.0
2014-Oct-30 04:31N 57°30' W 001°47'0 0.0
2014-Oct-30 03:31N 57°30' W 001°47'0 0.0
2014-Oct-30 02:31N 57°30' W 001°47'0 0.0
2014-Oct-30 01:28N 57°30' W 001°47'0 0.0
2014-Oct-30 00:31N 57°30' W 001°47'0 0.0
2014-Oct-29 23:31N 57°30' W 001°47'0 0.0
2014-Oct-29 22:31N 57°30' W 001°47'4 4.2
2014-Oct-29 21:33N 57°27' W 001°42'1111.2
2014-Oct-29 20:33N 57°17' W 001°48'5112.6
2014-Oct-29 16:33N 56°31' W 002°29'1111.0
2014-Oct-29 15:33N 56°27' W 002°48'  
2014-Oct-25 19:06N 56°27' W 002°51'4 6.7
2014-Oct-25 18:32N 56°27' W 002°44'5 5.0
2014-Oct-25 17:27N 56°27' W 002°34'0 0.0
2014-Oct-25 16:27N 56°27' W 002°34'0 0.0
2014-Oct-25 15:27N 56°27' W 002°34'0 0.0
2014-Oct-25 14:27N 56°27' W 002°34'0 0.0
2014-Oct-25 13:30N 56°27' W 002°34'0 0.0
2014-Oct-25 12:30N 56°27' W 002°34'0 0.0
2014-Oct-25 11:33N 56°27' W 002°34'0 0.1
2014-Oct-25 10:33N 56°27' W 002°34'0 0.0
2014-Oct-25 09:33N 56°27' W 002°34'0 0.0
2014-Oct-25 08:33N 56°27' W 002°34'0 0.0
2014-Oct-25 07:33N 56°27' W 002°34'0 0.0
2014-Oct-25 06:33N 56°27' W 002°34'0 0.0
2014-Oct-25 05:33N 56°27' W 002°34'0 0.0
2014-Oct-25 04:33N 56°27' W 002°34'0 0.0
2014-Oct-25 03:24N 56°27' W 002°34'0 0.1
2014-Oct-25 02:21N 56°27' W 002°34'6 7.6
2014-Oct-25 01:33N 56°24' W 002°25'27211.2
2014-Oct-24 01:21N 54°59' E 005°14'911.4
2014-Oct-24 00:33N 54°54' E 005°28'5510.7
2014-Oct-23 19:25N 54°27' E 006°51'910.4
2014-Oct-23 18:33N 54°22' E 007°04'1110.6
2014-Oct-23 17:33N 54°17' E 007°19'1211.7
2014-Oct-23 16:33N 54°11' E 007°36'1212.2
2014-Oct-23 15:33N 54°05' E 007°54'1812.6
2014-Oct-23 14:07N 53°59' E 008°24'814.2
2014-Oct-23 13:33N 53°58' E 008°37'1111.1
2014-Oct-23 12:34N 53°50' E 008°52'11 7.2
2014-Oct-23 11:04N 53°54' E 009°09'2 0.1
2014-Oct-22 07:31N 53°55' E 009°12'0 0.0
2014-Oct-22 06:19N 53°55' E 009°12'0 0.0
2014-Oct-22 00:31N 53°55' E 009°12'0 0.0
2014-Oct-21 23:31N 53°55' E 009°12'0 0.0
2014-Oct-21 22:31N 53°55' E 009°12'0 0.0
2014-Oct-21 21:31N 53°55' E 009°12'0 0.0
2014-Oct-21 20:25N 53°55' E 009°12'0 0.0
2014-Oct-21 19:19N 53°55' E 009°12'0 0.0
2014-Oct-21 18:31N 53°55' E 009°12'0 0.0
2014-Oct-21 17:31N 53°55' E 009°12'0 0.0
2014-Oct-21 16:31N 53°55' E 009°12'0 0.0
2014-Oct-21 15:31N 53°55' E 009°12'0 0.0
2014-Oct-21 14:25N 53°55' E 009°12'0 0.0
2014-Oct-21 13:31N 53°55' E 009°12'0 0.0
2014-Oct-21 12:28N 53°55' E 009°12'0 0.0
2014-Oct-21 11:13N 53°55' E 009°12'0 0.0
2014-Oct-21 10:25N 53°55' E 009°12'0 0.0
2014-Oct-21 09:13N 53°55' E 009°12'0 0.0
2014-Oct-21 08:31N 53°55' E 009°12'0 0.0
2014-Oct-21 07:25N 53°55' E 009°12'  
Track history (hours):
 
Tides and Currents Weather Stations Pressure Air Temp Water Temp Dewpoint Dewpoint Depression Visibility Wind Speed Wind Dir Waves Ship Positions

Arklow Rogue

Last reported at 2014-Oct-31 06:31 UTC. Time now 2014-Oct-31 07:09 UTC.
Position N 57°30' W 001°47'.

Length 90 m; draft 3.4 m.

Type: Cargo ship. MMSI: 250000960.

Date/timePositionNaut miles runAvg speedWind from/ knotsBaromVisibWave heightAir tempDewpointWater temp
2014-Oct-31 06:31N 57°30' W 001°47'0 0.0
2014-Oct-31 05:31N 57°30' W 001°47'0 0.0
2014-Oct-31 04:31N 57°30' W 001°47'0 0.0
2014-Oct-31 03:31N 57°30' W 001°47'0 0.0
2014-Oct-31 02:28N 57°30' W 001°47'0 0.0
2014-Oct-31 01:31N 57°30' W 001°47'0 0.0
2014-Oct-31 00:31N 57°30' W 001°47'0 0.0
2014-Oct-30 23:31N 57°30' W 001°47'0 0.0
2014-Oct-30 22:31N 57°30' W 001°47'0 0.0
2014-Oct-30 21:31N 57°30' W 001°47'0 0.0
2014-Oct-30 20:31N 57°30' W 001°47'0 0.0
2014-Oct-30 19:31N 57°30' W 001°47'0 0.0
2014-Oct-30 18:31N 57°30' W 001°47'0 0.0
2014-Oct-30 17:31N 57°30' W 001°47'0 0.0
2014-Oct-30 16:31N 57°30' W 001°47'0 0.0
2014-Oct-30 15:31N 57°30' W 001°47'0 0.0
2014-Oct-30 14:28N 57°30' W 001°47'0 0.0
2014-Oct-30 13:31N 57°30' W 001°47'0 0.0
2014-Oct-30 12:31N 57°30' W 001°47'0 0.0
2014-Oct-30 11:31N 57°30' W 001°47'0 0.0
2014-Oct-30 10:31N 57°30' W 001°47'0 0.0
2014-Oct-30 09:31N 57°30' W 001°47'0 0.0
2014-Oct-30 08:31N 57°30' W 001°47'0 0.0
2014-Oct-30 07:31N 57°30' W 001°47'0 0.0
2014-Oct-30 06:31N 57°30' W 001°47'0 0.0
2014-Oct-30 05:28N 57°30' W 001°47'0 0.0
2014-Oct-30 04:31N 57°30' W 001°47'0 0.0
2014-Oct-30 03:31N 57°30' W 001°47'0 0.0
2014-Oct-30 02:31N 57°30' W 001°47'0 0.0
2014-Oct-30 01:28N 57°30' W 001°47'0 0.0
2014-Oct-30 00:31N 57°30' W 001°47'0 0.0
2014-Oct-29 23:31N 57°30' W 001°47'0 0.0
2014-Oct-29 22:31N 57°30' W 001°47'4 4.2
2014-Oct-29 21:33N 57°27' W 001°42'1111.2
2014-Oct-29 20:33N 57°17' W 001°48'5112.6
2014-Oct-29 16:33N 56°31' W 002°29'1111.0
2014-Oct-29 15:33N 56°27' W 002°48'  
2014-Oct-25 19:06N 56°27' W 002°51'4 6.7
2014-Oct-25 18:32N 56°27' W 002°44'5 5.0
2014-Oct-25 17:27N 56°27' W 002°34'0 0.0
2014-Oct-25 16:27N 56°27' W 002°34'0 0.0
2014-Oct-25 15:27N 56°27' W 002°34'0 0.0
2014-Oct-25 14:27N 56°27' W 002°34'0 0.0
2014-Oct-25 13:30N 56°27' W 002°34'0 0.0
2014-Oct-25 12:30N 56°27' W 002°34'0 0.0
2014-Oct-25 11:33N 56°27' W 002°34'0 0.1
2014-Oct-25 10:33N 56°27' W 002°34'0 0.0
2014-Oct-25 09:33N 56°27' W 002°34'0 0.0
2014-Oct-25 08:33N 56°27' W 002°34'0 0.0
2014-Oct-25 07:33N 56°27' W 002°34'0 0.0
2014-Oct-25 06:33N 56°27' W 002°34'0 0.0
2014-Oct-25 05:33N 56°27' W 002°34'0 0.0
2014-Oct-25 04:33N 56°27' W 002°34'0 0.0
2014-Oct-25 03:24N 56°27' W 002°34'0 0.1
2014-Oct-25 02:21N 56°27' W 002°34'6 7.6
2014-Oct-25 01:33N 56°24' W 002°25'27211.2
2014-Oct-24 01:21N 54°59' E 005°14'911.4
2014-Oct-24 00:33N 54°54' E 005°28'5510.7
2014-Oct-23 19:25N 54°27' E 006°51'910.4
2014-Oct-23 18:33N 54°22' E 007°04'1110.6
2014-Oct-23 17:33N 54°17' E 007°19'1211.7
2014-Oct-23 16:33N 54°11' E 007°36'1212.2
2014-Oct-23 15:33N 54°05' E 007°54'1812.6
2014-Oct-23 14:07N 53°59' E 008°24'814.2
2014-Oct-23 13:33N 53°58' E 008°37'1111.1
2014-Oct-23 12:34N 53°50' E 008°52'11 7.2
2014-Oct-23 11:04N 53°54' E 009°09'2 0.1
2014-Oct-22 07:31N 53°55' E 009°12'0 0.0
2014-Oct-22 06:19N 53°55' E 009°12'0 0.0
2014-Oct-22 00:31N 53°55' E 009°12'0 0.0
2014-Oct-21 23:31N 53°55' E 009°12'0 0.0
2014-Oct-21 22:31N 53°55' E 009°12'0 0.0
2014-Oct-21 21:31N 53°55' E 009°12'0 0.0
2014-Oct-21 20:25N 53°55' E 009°12'0 0.0
2014-Oct-21 19:19N 53°55' E 009°12'0 0.0
2014-Oct-21 18:31N 53°55' E 009°12'0 0.0
2014-Oct-21 17:31N 53°55' E 009°12'0 0.0
2014-Oct-21 16:31N 53°55' E 009°12'0 0.0
2014-Oct-21 15:31N 53°55' E 009°12'0 0.0
2014-Oct-21 14:25N 53°55' E 009°12'0 0.0
2014-Oct-21 13:31N 53°55' E 009°12'0 0.0
2014-Oct-21 12:28N 53°55' E 009°12'0 0.0
2014-Oct-21 11:13N 53°55' E 009°12'0 0.0
2014-Oct-21 10:25N 53°55' E 009°12'0 0.0
2014-Oct-21 09:13N 53°55' E 009°12'0 0.0
2014-Oct-21 08:31N 53°55' E 009°12'0 0.0
2014-Oct-21 07:25N 53°55' E 009°12'  

Dump ship's entire track history